Terminal Aerodrome Forecast
Issued by NWS Caribou, ME

Home | Current Version | Previous Version | Text Only | Print | Product List | Glossary On
Versions: 1 2 3 4 5 6 7 8 9 10 11 12 13 14 15 16 17 18 19
000
FTUS41 KCAR 172336
TAFBGR
TAF
KBGR 172336Z 1800/1824 06012KT 5SM -RASN BR OVC008
     FM180200 34012KT 2SM -SN BR OVC006
     FM181500 32012G19KT 4SM -SN BR OVC015
     FM181600 33015G25KT 6SM -SHSN BKN015=

USA.gov is the U.S. government's official web portal to all federal, state and local government web resources and services.